createdAt,value
2019-03-29T00:07:21.812Z,0.70
2019-03-29T00:17:28.154Z,0.90
2019-03-29T00:27:34.522Z,0.80
2019-03-29T00:37:52.981Z,0.60
2019-03-29T00:47:48.730Z,0.63
2019-03-29T00:57:55.114Z,0.63
2019-03-29T01:08:07.613Z,0.67
2019-03-29T01:18:09.533Z,0.70
2019-03-29T01:28:15.947Z,0.80
2019-03-29T01:38:24.217Z,0.63
2019-03-29T01:48:30.312Z,0.63
2019-03-29T01:58:36.693Z,0.60
2019-03-29T02:08:43.014Z,0.67
2019-03-29T02:18:49.362Z,0.80
2019-03-29T02:28:55.685Z,0.80
2019-03-29T02:39:02.055Z,0.80
2019-03-29T02:49:08.414Z,0.70
2019-03-29T02:59:16.077Z,0.70
2019-03-29T03:09:22.345Z,0.70
2019-03-29T03:19:28.753Z,0.77
2019-03-29T03:29:36.261Z,0.80
2019-03-29T03:39:42.688Z,0.87
2019-03-29T03:49:48.975Z,0.90
2019-03-29T03:59:55.541Z,0.73
2019-03-29T04:10:01.747Z,0.87
2019-03-29T04:20:08.079Z,0.70
2019-03-29T04:30:16.346Z,0.70
2019-03-29T04:40:22.656Z,0.80
2019-03-29T04:50:30.075Z,0.80
2019-03-29T05:00:36.415Z,0.70
2019-03-29T05:10:42.832Z,0.90
2019-03-29T05:20:49.296Z,0.80
2019-03-29T05:30:55.739Z,0.80
2019-03-29T05:41:02.081Z,0.80
2019-03-29T05:51:08.357Z,0.90
2019-03-29T06:01:14.719Z,0.80
2019-03-29T06:11:21.047Z,0.80
2019-03-29T06:21:27.379Z,0.80
2019-03-29T06:31:33.962Z,0.73
2019-03-29T06:41:40.323Z,0.73
2019-03-29T06:51:46.732Z,0.80
2019-03-29T07:01:53.221Z,1.00
2019-03-29T07:11:59.571Z,0.90
2019-03-29T07:22:05.798Z,0.80
2019-03-29T07:32:12.205Z,0.90
2019-03-29T07:42:18.483Z,1.03
2019-03-29T07:52:24.727Z,0.90
2019-03-29T08:02:34.924Z,1.00
2019-03-29T08:12:40.762Z,1.00
2019-03-29T08:22:47.035Z,1.10
2019-03-29T08:32:53.433Z,0.90
2019-03-29T08:42:59.583Z,1.03
2019-03-29T08:53:06.066Z,0.90
2019-03-29T09:03:13.415Z,0.90
2019-03-29T09:13:19.868Z,0.93
2019-03-29T09:23:26.196Z,1.00
2019-03-29T09:33:32.570Z,0.90
2019-03-29T09:43:38.814Z,0.90
2019-03-29T09:53:45.129Z,0.80
2019-03-29T10:03:51.548Z,0.93
2019-03-29T10:13:57.884Z,0.90
2019-03-29T10:24:04.253Z,0.90
2019-03-29T10:34:10.488Z,1.00
2019-03-29T10:44:16.977Z,1.00
2019-03-29T10:54:23.412Z,0.90
2019-03-29T11:04:31.921Z,0.90
2019-03-29T11:14:39.235Z,1.07
2019-03-29T11:24:45.514Z,1.10
2019-03-29T11:34:51.870Z,1.10
2019-03-29T11:44:58.253Z,0.90
2019-03-29T11:55:04.530Z,1.03
2019-03-29T12:05:12.190Z,0.80
2019-03-29T12:15:18.474Z,1.00
2019-03-29T12:25:24.728Z,0.93
2019-03-29T12:35:31.450Z,1.03
2019-03-29T12:45:37.711Z,1.03
2019-03-29T12:55:44.027Z,0.90
2019-03-29T13:05:50.476Z,1.10
2019-03-29T13:15:56.765Z,1.07
2019-03-29T13:26:03.615Z,0.90
2019-03-29T13:36:09.966Z,1.00
2019-03-29T13:46:16.327Z,1.10
2019-03-29T13:56:22.637Z,1.00
2019-03-29T14:06:29.016Z,1.07
2019-03-29T14:16:35.365Z,1.00
2019-03-29T14:26:41.806Z,1.10
2019-03-29T14:36:48.173Z,1.23
2019-03-29T14:46:54.532Z,1.17
2019-03-29T14:57:00.844Z,1.10
2019-03-29T15:07:07.172Z,1.20
2019-03-29T15:17:13.533Z,1.10
2019-03-29T15:27:19.948Z,1.23
2019-03-29T15:37:26.173Z,1.10
2019-03-29T15:47:32.718Z,1.17
2019-03-29T15:57:39.027Z,1.00
2019-03-29T16:07:45.366Z,1.27
2019-03-29T16:17:52.710Z,1.20
2019-03-29T16:27:59.071Z,1.20
2019-03-29T16:38:05.446Z,1.20
2019-03-29T16:48:11.922Z,1.30
2019-03-29T16:58:18.263Z,1.10
2019-03-29T17:08:24.569Z,1.00
2019-03-29T17:18:30.977Z,1.10
2019-03-29T17:28:37.625Z,1.10
2019-03-29T17:38:43.903Z,1.10
2019-03-29T17:48:50.211Z,1.20
2019-03-29T17:58:56.530Z,1.10
2019-03-29T18:09:04.430Z,1.10
2019-03-29T18:19:10.625Z,1.00
2019-03-29T18:29:16.943Z,1.00
2019-03-29T18:39:23.177Z,0.90
2019-03-29T18:49:29.442Z,1.27
2019-03-29T18:59:36.186Z,1.00
2019-03-29T19:09:42.727Z,0.93
2019-03-29T19:19:50.152Z,1.00
2019-03-29T19:29:56.506Z,1.00
2019-03-29T19:40:04.964Z,1.10
2019-03-29T19:50:12.130Z,1.03
2019-03-29T20:00:18.499Z,1.07
2019-03-29T20:10:24.968Z,1.10
2019-03-29T20:20:31.288Z,1.30
2019-03-29T20:30:37.724Z,1.00
2019-03-29T20:40:44.225Z,1.00
2019-03-29T20:50:50.608Z,1.20
2019-03-29T21:00:57.362Z,1.00
2019-03-29T21:11:04.240Z,1.10
2019-03-29T21:21:10.510Z,1.10
2019-03-29T21:31:16.827Z,1.10
2019-03-29T21:41:23.472Z,1.07
2019-03-29T21:51:29.866Z,1.17
2019-03-29T22:01:36.065Z,1.10
2019-03-29T22:11:42.386Z,1.10
2019-03-29T22:21:48.975Z,1.20
2019-03-29T22:31:55.455Z,1.20
2019-03-29T22:42:01.863Z,1.20
2019-03-29T22:52:08.130Z,1.20
2019-03-29T23:02:14.599Z,1.10
2019-03-29T23:12:20.944Z,1.10
2019-03-29T23:22:27.214Z,1.20
2019-03-29T23:32:33.639Z,1.10
2019-03-29T23:42:39.999Z,1.10
2019-03-29T23:52:46.479Z,1.13
